sensor_id;sensor_type;location;lat;lon;timestamp;pressure;altitude;pressure_sealevel;temperature;humidity
7180;BME280;3631;42.152;24.756;2022-10-18T00:00:13;101071.66;;;9.16;98.73
7180;BME280;3631;42.152;24.756;2022-10-18T00:02:41;101070.84;;;9.14;99.04
7180;BME280;3631;42.152;24.756;2022-10-18T00:05:08;101063.03;;;9.09;99.71
7180;BME280;3631;42.152;24.756;2022-10-18T00:07:35;101070.78;;;9.06;99.69
7180;BME280;3631;42.152;24.756;2022-10-18T00:10:03;101071.66;;;9.00;99.95
7180;BME280;3631;42.152;24.756;2022-10-18T00:12:31;101058.69;;;8.90;100.00
7180;BME280;3631;42.152;24.756;2022-10-18T00:14:59;101063.00;;;8.88;100.00
7180;BME280;3631;42.152;24.756;2022-10-18T00:17:26;101058.66;;;8.85;100.00
7180;BME280;3631;42.152;24.756;2022-10-18T00:19:54;101052.63;;;8.85;100.00
7180;BME280;3631;42.152;24.756;2022-10-18T00:22:21;101046.56;;;8.81;100.00
7180;BME280;3631;42.152;24.756;2022-10-18T00:24:50;101050.88;;;8.84;99.53
7180;BME280;3631;42.152;24.756;2022-10-18T00:27:17;101027.56;;;8.74;99.68
7180;BME280;3631;42.152;24.756;2022-10-18T00:29:44;101052.63;;;8.79;99.57
7180;BME280;3631;42.152;24.756;2022-10-18T00:32:11;101040.53;;;8.78;100.00
7180;BME280;3631;42.152;24.756;2022-10-18T00:34:38;101036.16;;;8.70;99.97
7180;BME280;3631;42.152;24.756;2022-10-18T00:37:06;101027.53;;;8.65;100.00
7180;BME280;3631;42.152;24.756;2022-10-18T00:39:33;101034.44;;;8.63;99.56
7180;BME280;3631;42.152;24.756;2022-10-18T00:42:00;101033.56;;;8.61;99.45
7180;BME280;3631;42.152;24.756;2022-10-18T00:45:00;101036.13;;;8.60;99.63
7180;BME280;3631;42.152;24.756;2022-10-18T00:47:27;101038.72;;;8.55;99.42
7180;BME280;3631;42.152;24.756;2022-10-18T00:49:56;101032.66;;;8.49;99.52
7180;BME280;3631;42.152;24.756;2022-10-18T00:52:32;101025.72;;;8.40;99.84
7180;BME280;3631;42.152;24.756;2022-10-18T00:55:00;101039.53;;;8.48;99.55
7180;BME280;3631;42.152;24.756;2022-10-18T00:57:27;101033.50;;;8.43;99.88
7180;BME280;3631;42.152;24.756;2022-10-18T00:59:54;101036.97;;;8.45;99.66
7180;BME280;3631;42.152;24.756;2022-10-18T01:02:23;101031.75;;;8.42;99.57
7180;BME280;3631;42.152;24.756;2022-10-18T01:04:50;101031.75;;;8.42;99.05
7180;BME280;3631;42.152;24.756;2022-10-18T01:07:32;101030.88;;;8.38;98.68
7180;BME280;3631;42.152;24.756;2022-10-18T01:10:13;101027.41;;;8.36;98.63
7180;BME280;3631;42.152;24.756;2022-10-18T01:12:52;101000.59;;;8.21;98.58
7180;BME280;3631;42.152;24.756;2022-10-18T01:15:25;101016.19;;;8.36;97.02
7180;BME280;3631;42.152;24.756;2022-10-18T01:18:00;101020.50;;;8.35;98.10
7180;BME280;3631;42.152;24.756;2022-10-18T01:20:42;101010.13;;;8.29;98.34
7180;BME280;3631;42.152;24.756;2022-10-18T01:23:30;101013.56;;;8.30;98.85
7180;BME280;3631;42.152;24.756;2022-10-18T01:26:05;101018.72;;;8.25;99.07
7180;BME280;3631;42.152;24.756;2022-10-18T01:28:51;101021.28;;;8.19;99.19
7180;BME280;3631;42.152;24.756;2022-10-18T01:31:29;101015.22;;;8.14;99.84
7180;BME280;3631;42.152;24.756;2022-10-18T01:34:01;101012.63;;;8.11;99.98
7180;BME280;3631;42.152;24.756;2022-10-18T01:36:32;101010.03;;;8.11;99.88
7180;BME280;3631;42.152;24.756;2022-10-18T01:39:05;101010.97;;;8.30;100.00
7180;BME280;3631;42.152;24.756;2022-10-18T01:41:35;101008.47;;;8.39;100.00
7180;BME280;3631;42.152;24.756;2022-10-18T01:44:06;101010.16;;;8.37;100.00
7180;BME280;3631;42.152;24.756;2022-10-18T01:46:37;101006.78;;;8.46;99.87
7180;BME280;3631;42.152;24.756;2022-10-18T01:49:05;101014.53;;;8.47;99.79
7180;BME280;3631;42.152;24.756;2022-10-18T01:51:32;101019.69;;;8.47;97.74
7180;BME280;3631;42.152;24.756;2022-10-18T01:53:59;101022.28;;;8.44;97.47
7180;BME280;3631;42.152;24.756;2022-10-18T01:56:32;101008.44;;;8.33;96.95
7180;BME280;3631;42.152;24.756;2022-10-18T01:59:16;101010.09;;;8.26;98.13
7180;BME280;3631;42.152;24.756;2022-10-18T02:01:54;100998.88;;;8.26;97.09
7180;BME280;3631;42.152;24.756;2022-10-18T02:04:32;100997.16;;;8.22;97.16
7180;BME280;3631;42.152;24.756;2022-10-18T02:07:08;100993.66;;;8.17;98.00
7180;BME280;3631;42.152;24.756;2022-10-18T02:09:45;100998.03;;;8.22;97.76
7180;BME280;3631;42.152;24.756;2022-10-18T02:12:15;100983.28;;;8.08;98.77
7180;BME280;3631;42.152;24.756;2022-10-18T02:14:44;100989.34;;;8.13;99.34
7180;BME280;3631;42.152;24.756;2022-10-18T02:17:14;100986.78;;;8.16;99.07
7180;BME280;3631;42.152;24.756;2022-10-18T02:19:44;100986.78;;;8.16;98.83
7180;BME280;3631;42.152;24.756;2022-10-18T02:22:14;100985.91;;;8.11;98.72
7180;BME280;3631;42.152;24.756;2022-10-18T02:24:45;100984.16;;;8.10;98.47
7180;BME280;3631;42.152;24.756;2022-10-18T02:27:14;100985.88;;;8.06;98.83
7180;BME280;3631;42.152;24.756;2022-10-18T02:29:42;100985.84;;;8.00;98.37
7180;BME280;3631;42.152;24.756;2022-10-18T02:32:13;100985.84;;;7.98;98.19
7180;BME280;3631;42.152;24.756;2022-10-18T02:34:45;100995.31;;;7.98;98.44
7180;BME280;3631;42.152;24.756;2022-10-18T02:37:14;100994.41;;;7.93;98.27
7180;BME280;3631;42.152;24.756;2022-10-18T02:39:45;100996.97;;;7.91;97.60
7180;BME280;3631;42.152;24.756;2022-10-18T02:42:14;100997.81;;;7.84;97.07
7180;BME280;3631;42.152;24.756;2022-10-18T02:44:41;100990.88;;;7.76;97.36
7180;BME280;3631;42.152;24.756;2022-10-18T02:47:09;100988.31;;;7.77;97.99
7180;BME280;3631;42.152;24.756;2022-10-18T02:49:38;100999.50;;;7.79;97.86
7180;BME280;3631;42.152;24.756;2022-10-18T02:52:05;100997.78;;;7.77;97.91
7180;BME280;3631;42.152;24.756;2022-10-18T02:54:32;101008.97;;;7.74;97.53
7180;BME280;3631;42.152;24.756;2022-10-18T02:56:59;101006.38;;;7.76;97.68
7180;BME280;3631;42.152;24.756;2022-10-18T02:59:25;101004.66;;;7.79;97.63
7180;BME280;3631;42.152;24.756;2022-10-18T03:01:52;101004.69;;;7.84;97.16
7180;BME280;3631;42.152;24.756;2022-10-18T03:04:19;101008.13;;;7.77;96.95
7180;BME280;3631;42.152;24.756;2022-10-18T03:06:48;101009.81;;;7.75;96.45
7180;BME280;3631;42.152;24.756;2022-10-18T03:09:14;101005.44;;;7.63;96.94
7180;BME280;3631;42.152;24.756;2022-10-18T03:11:41;101012.28;;;7.58;96.90
7180;BME280;3631;42.152;24.756;2022-10-18T03:14:08;101020.00;;;7.53;97.70
7180;BME280;3631;42.152;24.756;2022-10-18T03:16:35;101007.88;;;7.46;97.27
7180;BME280;3631;42.152;24.756;2022-10-18T03:19:02;101009.63;;;7.47;97.55
7180;BME280;3631;42.152;24.756;2022-10-18T03:21:29;100960.25;;;7.09;97.45
7180;BME280;3631;42.152;24.756;2022-10-18T03:23:57;101017.25;;;7.34;97.84
7180;BME280;3631;42.152;24.756;2022-10-18T03:26:25;101023.28;;;7.33;98.76
7180;BME280;3631;42.152;24.756;2022-10-18T03:28:53;101002.56;;;7.26;99.17
7180;BME280;3631;42.152;24.756;2022-10-18T03:31:20;101017.25;;;7.34;98.68
7180;BME280;3631;42.152;24.756;2022-10-18T03:33:46;101019.91;;;7.41;98.79
7180;BME280;3631;42.152;24.756;2022-10-18T03:36:13;101018.22;;;7.43;98.37
7180;BME280;3631;42.152;24.756;2022-10-18T03:38:40;101013.91;;;7.44;98.47
7180;BME280;3631;42.152;24.756;2022-10-18T03:41:09;101024.34;;;7.56;98.02
7180;BME280;3631;42.152;24.756;2022-10-18T03:43:36;101017.44;;;7.58;96.93
7180;BME280;3631;42.152;24.756;2022-10-18T03:46:03;101017.44;;;7.55;97.06
7180;BME280;3631;42.152;24.756;2022-10-18T03:48:30;101020.88;;;7.54;96.90
7180;BME280;3631;42.152;24.756;2022-10-18T03:50:57;101018.22;;;7.48;97.00
7180;BME280;3631;42.152;24.756;2022-10-18T03:53:24;101025.97;;;7.48;96.35
7180;BME280;3631;42.152;24.756;2022-10-18T03:55:51;101023.34;;;7.40;97.02
7180;BME280;3631;42.152;24.756;2022-10-18T03:58:20;101020.72;;;7.36;98.26
7180;BME280;3631;42.152;24.756;2022-10-18T04:00:48;101025.13;;;7.44;98.17
7180;BME280;3631;42.152;24.756;2022-10-18T04:03:16;101004.47;;;7.49;97.13
7180;BME280;3631;42.152;24.756;2022-10-18T04:05:43;101027.84;;;7.69;96.64
7180;BME280;3631;42.152;24.756;2022-10-18T04:08:10;101018.44;;;7.75;96.31
7180;BME280;3631;42.152;24.756;2022-10-18T04:10:37;101020.97;;;7.69;97.36
7180;BME280;3631;42.152;24.756;2022-10-18T04:13:05;101014.00;;;7.59;97.25
7180;BME280;3631;42.152;24.756;2022-10-18T04:15:34;100985.47;;;7.41;97.28
7180;BME280;3631;42.152;24.756;2022-10-18T04:18:01;101015.75;;;7.61;97.51
7180;BME280;3631;42.152;24.756;2022-10-18T04:20:28;101015.72;;;7.54;98.08
7180;BME280;3631;42.152;24.756;2022-10-18T04:22:55;101012.22;;;7.49;98.17
7180;BME280;3631;42.152;24.756;2022-10-18T04:25:22;101013.13;;;7.54;98.85
7180;BME280;3631;42.152;24.756;2022-10-18T04:27:49;101008.84;;;7.56;99.00
7180;BME280;3631;42.152;24.756;2022-10-18T04:30:17;101000.19;;;7.57;98.04
7180;BME280;3631;42.152;24.756;2022-10-18T04:32:45;101002.81;;;7.58;97.79
7180;BME280;3631;42.152;24.756;2022-10-18T04:35:12;101008.84;;;7.60;98.10
7180;BME280;3631;42.152;24.756;2022-10-18T04:37:39;101004.53;;;7.59;97.87
7180;BME280;3631;42.152;24.756;2022-10-18T04:40:07;101012.31;;;7.61;97.60
7180;BME280;3631;42.152;24.756;2022-10-18T04:42:34;101017.44;;;7.58;98.97
7180;BME280;3631;42.152;24.756;2022-10-18T04:45:01;101011.41;;;7.53;98.33
7180;BME280;3631;42.152;24.756;2022-10-18T04:47:30;101016.56;;;7.53;98.29
7180;BME280;3631;42.152;24.756;2022-10-18T04:49:58;101013.97;;;7.53;97.88
7180;BME280;3631;42.152;24.756;2022-10-18T04:52:25;101018.28;;;7.52;97.99
7180;BME280;3631;42.152;24.756;2022-10-18T04:54:52;101015.66;;;7.48;97.67
7180;BME280;3631;42.152;24.756;2022-10-18T04:57:19;101006.13;;;7.39;97.92
7180;BME280;3631;42.152;24.756;2022-10-18T04:59:46;101019.91;;;7.41;98.44
7180;BME280;3631;42.152;24.756;2022-10-18T05:02:13;101013.88;;;7.41;99.13
7180;BME280;3631;42.152;24.756;2022-10-18T05:04:40;101010.56;;;7.55;98.96
7180;BME280;3631;42.152;24.756;2022-10-18T05:07:08;101011.47;;;7.65;97.98
7180;BME280;3631;42.152;24.756;2022-10-18T05:09:35;101012.44;;;7.82;97.25
7180;BME280;3631;42.152;24.756;2022-10-18T05:12:02;101012.69;;;8.29;95.54
7180;BME280;3631;42.152;24.756;2022-10-18T05:14:29;101017.28;;;9.08;91.40
7180;BME280;3631;42.152;24.756;2022-10-18T05:16:56;101017.09;;;10.46;82.49
7180;BME280;3631;42.152;24.756;2022-10-18T05:19:23;101032.72;;;11.70;74.30
7180;BME280;3631;42.152;24.756;2022-10-18T05:21:50;101029.38;;;13.04;66.40
7180;BME280;3631;42.152;24.756;2022-10-18T05:24:18;101027.06;;;14.37;60.21
7180;BME280;3631;42.152;24.756;2022-10-18T05:26:45;101034.56;;;15.34;55.51
7180;BME280;3631;42.152;24.756;2022-10-18T05:29:12;101036.09;;;16.10;52.52
7180;BME280;3631;42.152;24.756;2022-10-18T05:31:39;101042.22;;;17.27;48.96
7180;BME280;3631;42.152;24.756;2022-10-18T05:34:06;101041.72;;;18.20;45.79
7180;BME280;3631;42.152;24.756;2022-10-18T05:36:33;101020.16;;;18.81;43.67
7180;BME280;3631;42.152;24.756;2022-10-18T05:39:02;101046.44;;;19.48;42.42
7180;BME280;3631;42.152;24.756;2022-10-18T05:41:31;101042.91;;;20.30;40.62
7180;BME280;3631;42.152;24.756;2022-10-18T05:44:01;101025.31;;;21.25;38.21
7180;BME280;3631;42.152;24.756;2022-10-18T05:46:28;101042.69;;;22.50;36.02
7180;BME280;3631;42.152;24.756;2022-10-18T05:48:55;101047.34;;;22.93;34.71
7180;BME280;3631;42.152;24.756;2022-10-18T05:51:22;101048.47;;;22.40;35.04
7180;BME280;3631;42.152;24.756;2022-10-18T05:53:49;101032.91;;;22.01;35.79
7180;BME280;3631;42.152;24.756;2022-10-18T05:56:17;101031.09;;;22.68;35.19
7180;BME280;3631;42.152;24.756;2022-10-18T05:58:48;101025.03;;;23.29;33.57
7180;BME280;3631;42.152;24.756;2022-10-18T06:01:15;101053.13;;;24.21;32.84
7180;BME280;3631;42.152;24.756;2022-10-18T06:03:42;101042.06;;;24.71;31.73
7180;BME280;3631;42.152;24.756;2022-10-18T06:06:10;101049.38;;;25.50;30.65
7180;BME280;3631;42.152;24.756;2022-10-18T06:08:39;101059.03;;;25.51;30.47
7180;BME280;3631;42.152;24.756;2022-10-18T06:11:07;101051.41;;;26.24;29.75
7180;BME280;3631;42.152;24.756;2022-10-18T06:13:34;101059.50;;;27.33;28.52
7180;BME280;3631;42.152;24.756;2022-10-18T06:16:02;101063.59;;;27.74;27.82
7180;BME280;3631;42.152;24.756;2022-10-18T06:18:29;101064.19;;;28.35;27.00
7180;BME280;3631;42.152;24.756;2022-10-18T06:20:57;101065.03;;;29.02;26.34
7180;BME280;3631;42.152;24.756;2022-10-18T06:23:24;101074.78;;;29.78;25.50
7180;BME280;3631;42.152;24.756;2022-10-18T06:25:51;101068.09;;;29.73;25.40
7180;BME280;3631;42.152;24.756;2022-10-18T06:28:18;101072.75;;;30.33;24.88
7180;BME280;3631;42.152;24.756;2022-10-18T06:30:45;101070.38;;;30.70;24.61
7180;BME280;3631;42.152;24.756;2022-10-18T06:33:13;101071.97;;;31.32;24.25
7180;BME280;3631;42.152;24.756;2022-10-18T06:35:40;101070.59;;;31.66;23.79
7180;BME280;3631;42.152;24.756;2022-10-18T06:38:07;101067.59;;;31.31;24.06
7180;BME280;3631;42.152;24.756;2022-10-18T06:40:34;101066.75;;;29.35;25.71
7180;BME280;3631;42.152;24.756;2022-10-18T06:43:02;101055.13;;;26.59;28.99
7180;BME280;3631;42.152;24.756;2022-10-18T06:45:31;101043.69;;;24.45;32.20
7180;BME280;3631;42.152;24.756;2022-10-18T06:47:58;101047.41;;;22.27;35.87
7180;BME280;3631;42.152;24.756;2022-10-18T06:50:26;101054.78;;;20.00;40.39
7180;BME280;3631;42.152;24.756;2022-10-18T06:52:53;101046.25;;;18.64;44.06
7180;BME280;3631;42.152;24.756;2022-10-18T06:55:20;101044.84;;;17.55;47.25
7180;BME280;3631;42.152;24.756;2022-10-18T06:57:47;101038.13;;;16.92;49.66
7180;BME280;3631;42.152;24.756;2022-10-18T07:00:14;101028.84;;;16.49;51.85
7180;BME280;3631;42.152;24.756;2022-10-18T07:02:41;101038.50;;;15.85;53.97
7180;BME280;3631;42.152;24.756;2022-10-18T07:05:09;101036.25;;;15.70;55.04
7180;BME280;3631;42.152;24.756;2022-10-18T07:07:38;101028.84;;;15.16;57.12
7180;BME280;3631;42.152;24.756;2022-10-18T07:10:05;101032.84;;;14.94;57.98
7180;BME280;3631;42.152;24.756;2022-10-18T07:12:33;101028.75;;;14.82;58.42
7180;BME280;3631;42.152;24.756;2022-10-18T07:14:59;101032.03;;;14.52;59.48
7180;BME280;3631;42.152;24.756;2022-10-18T07:17:26;101031.09;;;14.10;61.21
7180;BME280;3631;42.152;24.756;2022-10-18T07:19:53;101025.28;;;13.96;61.88
7180;BME280;3631;42.152;24.756;2022-10-18T07:22:20;101018.53;;;13.84;62.67
7180;BME280;3631;42.152;24.756;2022-10-18T07:24:48;101022.53;;;14.02;62.27
7180;BME280;3631;42.152;24.756;2022-10-18T07:27:15;101013.34;;;14.27;61.75
7180;BME280;3631;42.152;24.756;2022-10-18T07:29:42;101006.53;;;14.20;61.85
7180;BME280;3631;42.152;24.756;2022-10-18T07:32:09;101002.84;;;14.30;61.73
7180;BME280;3631;42.152;24.756;2022-10-18T07:34:36;101006.28;;;14.32;61.50
7180;BME280;3631;42.152;24.756;2022-10-18T07:37:03;101003.56;;;14.37;61.99
7180;BME280;3631;42.152;24.756;2022-10-18T07:39:30;100995.41;;;14.53;61.72
7180;BME280;3631;42.152;24.756;2022-10-18T07:41:58;100990.25;;;14.50;61.32
7180;BME280;3631;42.152;24.756;2022-10-18T07:44:25;100988.78;;;14.36;62.17
7180;BME280;3631;42.152;24.756;2022-10-18T07:46:52;100994.16;;;14.28;63.34
7180;BME280;3631;42.152;24.756;2022-10-18T07:49:19;100992.22;;;14.39;63.78
7180;BME280;3631;42.152;24.756;2022-10-18T07:51:46;100983.19;;;14.56;63.43
7180;BME280;3631;42.152;24.756;2022-10-18T07:54:14;100972.16;;;14.41;63.65
7180;BME280;3631;42.152;24.756;2022-10-18T07:56:42;100974.88;;;14.34;63.92
7180;BME280;3631;42.152;24.756;2022-10-18T07:59:10;100967.84;;;14.37;64.07
7180;BME280;3631;42.152;24.756;2022-10-18T08:01:37;100972.91;;;14.46;64.21
7180;BME280;3631;42.152;24.756;2022-10-18T08:04:04;100964.81;;;14.59;63.61
7180;BME280;3631;42.152;24.756;2022-10-18T08:06:31;100964.53;;;14.71;62.69
7180;BME280;3631;42.152;24.756;2022-10-18T08:08:58;100966.34;;;14.67;63.01
7180;BME280;3631;42.152;24.756;2022-10-18T08:11:25;100968.94;;;14.69;62.67
7180;BME280;3631;42.152;24.756;2022-10-18T08:13:52;100958.41;;;14.72;62.83
7180;BME280;3631;42.152;24.756;2022-10-18T08:16:22;100927.69;;;14.44;63.00
7180;BME280;3631;42.152;24.756;2022-10-18T08:18:49;100949.97;;;14.61;63.29
7180;BME280;3631;42.152;24.756;2022-10-18T08:21:18;100942.63;;;14.78;63.20
7180;BME280;3631;42.152;24.756;2022-10-18T08:23:45;100917.53;;;14.69;63.22
7180;BME280;3631;42.152;24.756;2022-10-18T08:26:14;100942.91;;;15.01;63.26
7180;BME280;3631;42.152;24.756;2022-10-18T08:28:42;100941.88;;;15.08;63.22
7180;BME280;3631;42.152;24.756;2022-10-18T08:31:11;100931.28;;;15.13;62.74
7180;BME280;3631;42.152;24.756;2022-10-18T08:33:39;100929.22;;;15.25;62.85
7180;BME280;3631;42.152;24.756;2022-10-18T08:36:08;100917.13;;;15.21;63.70
7180;BME280;3631;42.152;24.756;2022-10-18T08:38:37;100923.06;;;15.28;63.57
7180;BME280;3631;42.152;24.756;2022-10-18T08:41:19;100913.19;;;15.38;62.81
7180;BME280;3631;42.152;24.756;2022-10-18T08:43:55;100912.81;;;15.19;63.74
7180;BME280;3631;42.152;24.756;2022-10-18T08:46:24;100907.53;;;15.22;63.54
7180;BME280;3631;42.152;24.756;2022-10-18T08:48:54;100903.09;;;15.24;63.04
7180;BME280;3631;42.152;24.756;2022-10-18T08:51:26;100894.44;;;15.22;62.99
7180;BME280;3631;42.152;24.756;2022-10-18T08:54:02;100891.59;;;15.31;62.79
7180;BME280;3631;42.152;24.756;2022-10-18T08:56:31;100890.56;;;15.37;62.75
7180;BME280;3631;42.152;24.756;2022-10-18T08:59:00;100889.53;;;15.42;62.50
7180;BME280;3631;42.152;24.756;2022-10-18T09:01:32;100889.59;;;15.41;62.57
7180;BME280;3631;42.152;24.756;2022-10-18T09:04:17;100883.69;;;15.33;63.29
7180;BME280;3631;42.152;24.756;2022-10-18T09:06:54;100877.41;;;15.40;63.48
7180;BME280;3631;42.152;24.756;2022-10-18T09:09:34;100882.31;;;15.52;63.81
7180;BME280;3631;42.152;24.756;2022-10-18T09:12:18;100869.28;;;15.49;63.32
7180;BME280;3631;42.152;24.756;2022-10-18T09:15:15;100866.63;;;15.50;63.62
7180;BME280;3631;42.152;24.756;2022-10-18T09:17:55;100875.38;;;15.49;63.89
7180;BME280;3631;42.152;24.756;2022-10-18T09:20:31;100874.38;;;15.56;64.20
7180;BME280;3631;42.152;24.756;2022-10-18T09:23:05;100867.16;;;15.65;63.84
7180;BME280;3631;42.152;24.756;2022-10-18T09:25:45;100866.09;;;15.70;63.56
7180;BME280;3631;42.152;24.756;2022-10-18T09:28:21;100863.19;;;15.81;63.06
7180;BME280;3631;42.152;24.756;2022-10-18T09:30:55;100857.16;;;15.79;63.74
7180;BME280;3631;42.152;24.756;2022-10-18T09:33:32;100849.16;;;15.83;63.78
7180;BME280;3631;42.152;24.756;2022-10-18T09:36:05;100840.13;;;15.93;63.79
7180;BME280;3631;42.152;24.756;2022-10-18T09:38:39;100840.63;;;16.06;63.43
7180;BME280;3631;42.152;24.756;2022-10-18T09:41:11;100834.09;;;16.19;62.80
7180;BME280;3631;42.152;24.756;2022-10-18T09:43:46;100821.66;;;16.26;61.77
7180;BME280;3631;42.152;24.756;2022-10-18T09:46:16;100830.25;;;16.31;61.42
7180;BME280;3631;42.152;24.756;2022-10-18T09:48:47;100813.53;;;16.35;63.20
7180;BME280;3631;42.152;24.756;2022-10-18T09:51:18;100826.41;;;16.41;62.32
7180;BME280;3631;42.152;24.756;2022-10-18T09:54:12;100819.28;;;16.46;61.78
7180;BME280;3631;42.152;24.756;2022-10-18T09:56:43;100808.91;;;16.43;61.39
7180;BME280;3631;42.152;24.756;2022-10-18T09:59:26;100804.16;;;16.54;62.17
7180;BME280;3631;42.152;24.756;2022-10-18T10:01:56;100806.69;;;16.57;61.35
7180;BME280;3631;42.152;24.756;2022-10-18T10:04:23;100793.41;;;16.63;60.71
7180;BME280;3631;42.152;24.756;2022-10-18T10:06:53;100781.88;;;16.69;60.67
7180;BME280;3631;42.152;24.756;2022-10-18T10:09:25;100783.41;;;16.75;59.51
7180;BME280;3631;42.152;24.756;2022-10-18T10:11:54;100775.53;;;16.75;59.70
7180;BME280;3631;42.152;24.756;2022-10-18T10:14:23;100774.34;;;16.83;59.91
7180;BME280;3631;42.152;24.756;2022-10-18T10:16:53;100771.72;;;16.83;59.77
7180;BME280;3631;42.152;24.756;2022-10-18T10:19:30;100759.47;;;16.84;58.08
7180;BME280;3631;42.152;24.756;2022-10-18T10:22:03;100760.28;;;16.86;57.25
7180;BME280;3631;42.152;24.756;2022-10-18T10:24:45;100753.22;;;16.88;57.52
7180;BME280;3631;42.152;24.756;2022-10-18T10:27:16;100750.56;;;16.89;57.46
7180;BME280;3631;42.152;24.756;2022-10-18T10:29:53;100734.81;;;16.89;57.93
7180;BME280;3631;42.152;24.756;2022-10-18T10:32:27;100739.22;;;16.89;58.07
7180;BME280;3631;42.152;24.756;2022-10-18T10:34:54;100727.38;;;17.02;58.19
7180;BME280;3631;42.152;24.756;2022-10-18T10:37:32;100723.22;;;17.20;57.81
7180;BME280;3631;42.152;24.756;2022-10-18T10:40:21;100705.72;;;17.20;56.89
7180;BME280;3631;42.152;24.756;2022-10-18T10:42:57;100706.28;;;17.28;55.93
7180;BME280;3631;42.152;24.756;2022-10-18T10:45:27;100686.94;;;17.31;55.97
7180;BME280;3631;42.152;24.756;2022-10-18T10:48:02;100693.50;;;17.42;55.87
7180;BME280;3631;42.152;24.756;2022-10-18T10:50:30;100682.69;;;17.50;55.92
7180;BME280;3631;42.152;24.756;2022-10-18T10:52:58;100679.63;;;17.61;55.14
7180;BME280;3631;42.152;24.756;2022-10-18T10:55:30;100665.75;;;17.59;54.21
7180;BME280;3631;42.152;24.756;2022-10-18T10:57:59;100662.72;;;17.69;53.36
7180;BME280;3631;42.152;24.756;2022-10-18T11:00:38;100661.72;;;17.72;53.75
7180;BME280;3631;42.152;24.756;2022-10-18T11:03:10;100644.19;;;17.72;54.05
7180;BME280;3631;42.152;24.756;2022-10-18T11:05:43;100649.09;;;17.82;53.68
7180;BME280;3631;42.152;24.756;2022-10-18T11:08:15;100640.97;;;17.88;53.79
7180;BME280;3631;42.152;24.756;2022-10-18T11:10:59;100635.78;;;17.86;52.40
7180;BME280;3631;42.152;24.756;2022-10-18T11:13:42;100632.22;;;17.87;49.10
7180;BME280;3631;42.152;24.756;2022-10-18T11:16:13;100634.84;;;17.87;47.10
7180;BME280;3631;42.152;24.756;2022-10-18T11:18:45;100621.84;;;17.84;46.81
7180;BME280;3631;42.152;24.756;2022-10-18T11:21:16;100619.31;;;17.83;46.70
7180;BME280;3631;42.152;24.756;2022-10-18T11:23:46;100617.38;;;17.86;47.74
7180;BME280;3631;42.152;24.756;2022-10-18T11:26:27;100618.97;;;17.90;48.00
7180;BME280;3631;42.152;24.756;2022-10-18T11:29:13;100609.19;;;17.94;47.52
7180;BME280;3631;42.152;24.756;2022-10-18T11:31:48;100599.97;;;17.84;45.73
7180;BME280;3631;42.152;24.756;2022-10-18T11:34:34;100596.38;;;17.86;45.08
7180;BME280;3631;42.152;24.756;2022-10-18T11:37:13;100586.72;;;17.87;45.06
7180;BME280;3631;42.152;24.756;2022-10-18T11:39:56;100582.38;;;17.86;44.80
7180;BME280;3631;42.152;24.756;2022-10-18T11:42:33;100576.81;;;17.93;44.56
7180;BME280;3631;42.152;24.756;2022-10-18T11:45:13;100579.97;;;18.01;44.37
7180;BME280;3631;42.152;24.756;2022-10-18T11:47:49;100570.91;;;18.08;43.62
7180;BME280;3631;42.152;24.756;2022-10-18T11:50:24;100570.50;;;18.18;43.45
7180;BME280;3631;42.152;24.756;2022-10-18T11:53:03;100568.72;;;18.18;42.90
7180;BME280;3631;42.152;24.756;2022-10-18T11:55:45;100566.03;;;18.20;38.92
7180;BME280;3631;42.152;24.756;2022-10-18T11:58:28;100569.47;;;18.22;34.78
7180;BME280;3631;42.152;24.756;2022-10-18T12:01:04;100562.50;;;18.21;34.09
7180;BME280;3631;42.152;24.756;2022-10-18T12:03:40;100557.34;;;18.18;33.73
7180;BME280;3631;42.152;24.756;2022-10-18T12:06:13;100551.34;;;18.16;37.85
7180;BME280;3631;42.152;24.756;2022-10-18T12:08:44;100542.53;;;18.17;38.58
7180;BME280;3631;42.152;24.756;2022-10-18T12:11:16;100541.41;;;18.22;37.75
7180;BME280;3631;42.152;24.756;2022-10-18T12:13:48;100538.44;;;18.30;37.38
7180;BME280;3631;42.152;24.756;2022-10-18T12:16:17;100533.28;;;18.28;37.08
7180;BME280;3631;42.152;24.756;2022-10-18T12:18:53;100527.72;;;18.34;37.62
7180;BME280;3631;42.152;24.756;2022-10-18T12:21:22;100514.22;;;18.42;37.45
7180;BME280;3631;42.152;24.756;2022-10-18T12:23:52;100521.25;;;18.41;37.79
7180;BME280;3631;42.152;24.756;2022-10-18T12:26:22;100518.00;;;18.55;36.57
7180;BME280;3631;42.152;24.756;2022-10-18T12:28:59;100508.13;;;18.62;36.35
7180;BME280;3631;42.152;24.756;2022-10-18T12:31:30;100499.91;;;18.49;36.61
7180;BME280;3631;42.152;24.756;2022-10-18T12:34:02;100503.28;;;18.51;37.22
7180;BME280;3631;42.152;24.756;2022-10-18T12:36:55;100491.72;;;18.55;36.18
7180;BME280;3631;42.152;24.756;2022-10-18T12:39:27;100485.66;;;18.53;35.92
7180;BME280;3631;42.152;24.756;2022-10-18T12:41:59;100492.97;;;18.67;34.84
7180;BME280;3631;42.152;24.756;2022-10-18T12:44:30;100492.03;;;18.68;35.03
7180;BME280;3631;42.152;24.756;2022-10-18T12:46:58;100498.63;;;18.76;35.23
7180;BME280;3631;42.152;24.756;2022-10-18T12:49:28;100489.56;;;18.83;35.91
7180;BME280;3631;42.152;24.756;2022-10-18T12:51:58;100481.56;;;18.85;35.27
7180;BME280;3631;42.152;24.756;2022-10-18T12:54:27;100483.44;;;18.83;35.75
7180;BME280;3631;42.152;24.756;2022-10-18T12:56:56;100479.22;;;18.79;35.30
7180;BME280;3631;42.152;24.756;2022-10-18T12:59:51;100491.41;;;18.81;34.72
7180;BME280;3631;42.152;24.756;2022-10-18T13:02:21;100476.47;;;18.82;35.35
7180;BME280;3631;42.152;24.756;2022-10-18T13:04:48;100466.00;;;18.80;34.84
7180;BME280;3631;42.152;24.756;2022-10-18T13:07:19;100466.91;;;18.98;33.27
7180;BME280;3631;42.152;24.756;2022-10-18T13:12:57;100463.41;;;19.16;31.92
7180;BME280;3631;42.152;24.756;2022-10-18T13:15:39;100460.59;;;19.19;31.59
7180;BME280;3631;42.152;24.756;2022-10-18T13:18:16;100455.63;;;19.13;31.50
7180;BME280;3631;42.152;24.756;2022-10-18T13:21:05;100458.19;;;19.15;30.34
7180;BME280;3631;42.152;24.756;2022-10-18T13:23:45;100454.47;;;19.19;30.10
7180;BME280;3631;42.152;24.756;2022-10-18T13:26:20;100454.13;;;19.27;30.45